sensor_id;sensor_type;location;lat;lon;timestamp;P1;durP1;ratioP1;P2;durP2;ratioP2
56511;SDS011;42408;53.238;5.686;2022-07-15T08:37:00;3.92;;;1.00;;
56511;SDS011;42408;53.238;5.686;2022-07-15T08:39:26;2.67;;;0.90;;
56511;SDS011;42408;53.238;5.686;2022-07-15T08:41:52;2.10;;;0.90;;
56511;SDS011;42408;53.238;5.686;2022-07-15T08:44:17;3.33;;;1.10;;
56511;SDS011;42408;53.238;5.686;2022-07-15T08:46:46;2.08;;;0.80;;
56511;SDS011;42408;53.238;5.686;2022-07-15T08:49:13;2.67;;;1.08;;
56511;SDS011;42408;53.238;5.686;2022-07-15T08:51:45;2.65;;;0.98;;
56511;SDS011;42408;53.238;5.686;2022-07-15T08:54:11;1.38;;;0.50;;
56511;SDS011;42408;53.238;5.686;2022-07-15T08:56:38;1.70;;;0.50;;
56511;SDS011;42408;53.238;5.686;2022-07-15T08:59:05;2.08;;;0.70;;
56511;SDS011;42408;53.238;5.686;2022-07-15T09:01:32;2.50;;;0.57;;
56511;SDS011;42408;53.238;5.686;2022-07-15T09:03:59;2.63;;;0.70;;
56511;SDS011;42408;53.238;5.686;2022-07-15T09:06:38;2.10;;;0.68;;
56511;SDS011;42408;53.238;5.686;2022-07-15T09:09:39;4.18;;;0.82;;
56511;SDS011;42408;53.238;5.686;2022-07-15T09:12:06;1.48;;;0.68;;
56511;SDS011;42408;53.238;5.686;2022-07-15T09:14:34;2.75;;;1.10;;
56511;SDS011;42408;53.238;5.686;2022-07-15T09:19:55;1.83;;;0.70;;
56511;SDS011;42408;53.238;5.686;2022-07-15T09:25:16;1.08;;;0.60;;
56511;SDS011;42408;53.238;5.686;2022-07-15T09:27:43;2.33;;;0.50;;
56511;SDS011;42408;53.238;5.686;2022-07-15T09:30:15;5.45;;;1.10;;
56511;SDS011;42408;53.238;5.686;2022-07-15T09:33:01;2.58;;;0.60;;
56511;SDS011;42408;53.238;5.686;2022-07-15T09:35:46;2.42;;;0.77;;
56511;SDS011;42408;53.238;5.686;2022-07-15T09:38:41;3.22;;;0.82;;
56511;SDS011;42408;53.238;5.686;2022-07-15T09:41:13;4.00;;;0.90;;
56511;SDS011;42408;53.238;5.686;2022-07-15T09:43:53;3.08;;;0.73;;
56511;SDS011;42408;53.238;5.686;2022-07-15T09:49:06;1.63;;;0.50;;
56511;SDS011;42408;53.238;5.686;2022-07-15T09:51:42;2.63;;;0.75;;
56511;SDS011;42408;53.238;5.686;2022-07-15T09:54:19;3.63;;;1.05;;
56511;SDS011;42408;53.238;5.686;2022-07-15T09:56:47;2.85;;;0.82;;
56511;SDS011;42408;53.238;5.686;2022-07-15T09:59:14;1.40;;;0.70;;
56511;SDS011;42408;53.238;5.686;2022-07-15T10:01:41;2.63;;;0.82;;
56511;SDS011;42408;53.238;5.686;2022-07-15T10:04:07;3.10;;;0.80;;
56511;SDS011;42408;53.238;5.686;2022-07-15T10:06:34;2.00;;;0.80;;
56511;SDS011;42408;53.238;5.686;2022-07-15T10:09:03;2.72;;;0.90;;
56511;SDS011;42408;53.238;5.686;2022-07-15T10:11:34;3.03;;;1.05;;
56511;SDS011;42408;53.238;5.686;2022-07-15T10:23:06;3.47;;;1.17;;
56511;SDS011;42408;53.238;5.686;2022-07-15T10:28:54;2.67;;;1.08;;
56511;SDS011;42408;53.238;5.686;2022-07-15T10:31:27;2.38;;;1.25;;
56511;SDS011;42408;53.238;5.686;2022-07-15T10:36:39;4.10;;;1.15;;
56511;SDS011;42408;53.238;5.686;2022-07-15T10:39:11;3.00;;;1.10;;
56511;SDS011;42408;53.238;5.686;2022-07-15T10:41:54;2.72;;;1.08;;
56511;SDS011;42408;53.238;5.686;2022-07-15T10:44:32;1.98;;;1.02;;
56511;SDS011;42408;53.238;5.686;2022-07-15T10:49:37;4.43;;;1.27;;
56511;SDS011;42408;53.238;5.686;2022-07-15T10:55:03;6.03;;;1.35;;
56511;SDS011;42408;53.238;5.686;2022-07-15T11:05:30;4.25;;;1.15;;
56511;SDS011;42408;53.238;5.686;2022-07-15T11:07:56;4.85;;;1.20;;
56511;SDS011;42408;53.238;5.686;2022-07-15T11:10:22;4.57;;;1.83;;
56511;SDS011;42408;53.238;5.686;2022-07-15T11:15:14;2.37;;;1.10;;
56511;SDS011;42408;53.238;5.686;2022-07-15T11:17:45;3.45;;;1.27;;
56511;SDS011;42408;53.238;5.686;2022-07-15T11:22:52;3.83;;;1.40;;
56511;SDS011;42408;53.238;5.686;2022-07-15T11:25:20;2.95;;;1.60;;
56511;SDS011;42408;53.238;5.686;2022-07-15T11:30:45;4.55;;;1.40;;
56511;SDS011;42408;53.238;5.686;2022-07-15T11:33:19;3.67;;;1.30;;
56511;SDS011;42408;53.238;5.686;2022-07-15T11:35:50;5.80;;;1.63;;
56511;SDS011;42408;53.238;5.686;2022-07-15T11:38:18;3.58;;;1.20;;
56511;SDS011;42408;53.238;5.686;2022-07-15T11:40:52;3.40;;;1.38;;
56511;SDS011;42408;53.238;5.686;2022-07-15T11:43:43;1.92;;;1.20;;
56511;SDS011;42408;53.238;5.686;2022-07-15T11:46:29;3.25;;;1.25;;
56511;SDS011;42408;53.238;5.686;2022-07-15T11:48:59;4.35;;;1.77;;
56511;SDS011;42408;53.238;5.686;2022-07-15T11:51:25;3.00;;;1.55;;
56511;SDS011;42408;53.238;5.686;2022-07-15T11:53:55;3.13;;;1.48;;
56511;SDS011;42408;53.238;5.686;2022-07-15T11:56:21;3.40;;;1.55;;
56511;SDS011;42408;53.238;5.686;2022-07-15T11:58:51;4.18;;;1.42;;
56511;SDS011;42408;53.238;5.686;2022-07-15T12:01:25;3.03;;;1.33;;
56511;SDS011;42408;53.238;5.686;2022-07-15T12:03:56;4.30;;;1.38;;
56511;SDS011;42408;53.238;5.686;2022-07-15T12:06:24;3.20;;;1.50;;
56511;SDS011;42408;53.238;5.686;2022-07-15T12:08:58;2.80;;;1.50;;
56511;SDS011;42408;53.238;5.686;2022-07-15T12:11:26;5.28;;;1.40;;
56511;SDS011;42408;53.238;5.686;2022-07-15T12:19:20;7.50;;;2.00;;
56511;SDS011;42408;53.238;5.686;2022-07-15T12:24:19;4.47;;;1.40;;
56511;SDS011;42408;53.238;5.686;2022-07-15T12:29:15;3.83;;;1.50;;
56511;SDS011;42408;53.238;5.686;2022-07-15T12:31:53;2.05;;;1.40;;
56511;SDS011;42408;53.238;5.686;2022-07-15T12:37:14;4.13;;;1.52;;
56511;SDS011;42408;53.238;5.686;2022-07-15T12:39:54;3.88;;;1.58;;
56511;SDS011;42408;53.238;5.686;2022-07-15T12:42:20;3.45;;;1.20;;
56511;SDS011;42408;53.238;5.686;2022-07-15T12:44:46;2.22;;;1.23;;
56511;SDS011;42408;53.238;5.686;2022-07-15T12:47:31;4.97;;;1.52;;
56511;SDS011;42408;53.238;5.686;2022-07-15T12:49:58;6.67;;;1.90;;
56511;SDS011;42408;53.238;5.686;2022-07-15T12:52:29;3.30;;;1.40;;
56511;SDS011;42408;53.238;5.686;2022-07-15T12:55:11;2.65;;;1.17;;
56511;SDS011;42408;53.238;5.686;2022-07-15T12:57:39;4.38;;;1.60;;
56511;SDS011;42408;53.238;5.686;2022-07-15T13:05:34;4.00;;;1.45;;
56511;SDS011;42408;53.238;5.686;2022-07-15T13:08:03;4.72;;;1.70;;
56511;SDS011;42408;53.238;5.686;2022-07-15T13:10:30;4.72;;;1.80;;
56511;SDS011;42408;53.238;5.686;2022-07-15T13:15:21;5.20;;;2.05;;
56511;SDS011;42408;53.238;5.686;2022-07-15T13:17:47;2.73;;;1.53;;
56511;SDS011;42408;53.238;5.686;2022-07-15T13:20:13;5.40;;;1.90;;
56511;SDS011;42408;53.238;5.686;2022-07-15T13:22:39;3.20;;;1.63;;
56511;SDS011;42408;53.238;5.686;2022-07-15T13:27:31;4.00;;;1.98;;
56511;SDS011;42408;53.238;5.686;2022-07-15T13:29:56;5.35;;;2.03;;
56511;SDS011;42408;53.238;5.686;2022-07-15T13:32:22;4.53;;;1.97;;
56511;SDS011;42408;53.238;5.686;2022-07-15T13:34:47;3.90;;;1.70;;
56511;SDS011;42408;53.238;5.686;2022-07-15T13:37:13;5.13;;;1.77;;
56511;SDS011;42408;53.238;5.686;2022-07-15T13:39:39;5.77;;;1.90;;
56511;SDS011;42408;53.238;5.686;2022-07-15T13:42:04;3.85;;;1.70;;
56511;SDS011;42408;53.238;5.686;2022-07-15T13:44:30;5.70;;;1.80;;
56511;SDS011;42408;53.238;5.686;2022-07-15T13:46:56;5.70;;;1.90;;
56511;SDS011;42408;53.238;5.686;2022-07-15T13:49:21;5.32;;;1.80;;
56511;SDS011;42408;53.238;5.686;2022-07-15T13:52:07;7.55;;;2.08;;
56511;SDS011;42408;53.238;5.686;2022-07-15T13:54:33;5.10;;;1.80;;
56511;SDS011;42408;53.238;5.686;2022-07-15T13:56:58;4.97;;;1.80;;
56511;SDS011;42408;53.238;5.686;2022-07-15T13:59:24;5.63;;;1.73;;
56511;SDS011;42408;53.238;5.686;2022-07-15T14:01:49;3.47;;;1.50;;
56511;SDS011;42408;53.238;5.686;2022-07-15T14:04:16;4.57;;;1.85;;
56511;SDS011;42408;53.238;5.686;2022-07-15T14:06:42;4.07;;;1.70;;
56511;SDS011;42408;53.238;5.686;2022-07-15T14:09:08;4.33;;;1.90;;
56511;SDS011;42408;53.238;5.686;2022-07-15T14:11:34;4.68;;;1.90;;
56511;SDS011;42408;53.238;5.686;2022-07-15T14:14:00;3.72;;;1.90;;
56511;SDS011;42408;53.238;5.686;2022-07-15T14:16:26;6.15;;;1.80;;
56511;SDS011;42408;53.238;5.686;2022-07-15T14:18:52;3.65;;;1.90;;
56511;SDS011;42408;53.238;5.686;2022-07-15T14:21:18;4.57;;;1.70;;
56511;SDS011;42408;53.238;5.686;2022-07-15T14:23:45;4.80;;;1.90;;
56511;SDS011;42408;53.238;5.686;2022-07-15T14:26:11;3.58;;;1.85;;
56511;SDS011;42408;53.238;5.686;2022-07-15T14:28:38;5.50;;;1.98;;
56511;SDS011;42408;53.238;5.686;2022-07-15T14:31:05;7.13;;;2.10;;
56511;SDS011;42408;53.238;5.686;2022-07-15T14:33:32;12.10;;;1.88;;
56511;SDS011;42408;53.238;5.686;2022-07-15T14:35:58;4.18;;;1.70;;
56511;SDS011;42408;53.238;5.686;2022-07-15T14:38:24;5.78;;;2.00;;
56511;SDS011;42408;53.238;5.686;2022-07-15T14:40:50;8.80;;;2.10;;
56511;SDS011;42408;53.238;5.686;2022-07-15T14:43:15;5.30;;;2.10;;
56511;SDS011;42408;53.238;5.686;2022-07-15T14:45:41;6.77;;;2.20;;
56511;SDS011;42408;53.238;5.686;2022-07-15T14:48:07;6.13;;;2.07;;
56511;SDS011;42408;53.238;5.686;2022-07-15T14:50:32;4.90;;;2.00;;
56511;SDS011;42408;53.238;5.686;2022-07-15T14:52:59;5.68;;;2.33;;
56511;SDS011;42408;53.238;5.686;2022-07-15T14:55:25;9.50;;;2.58;;
56511;SDS011;42408;53.238;5.686;2022-07-15T14:57:51;5.63;;;2.53;;
56511;SDS011;42408;53.238;5.686;2022-07-15T15:00:16;8.65;;;2.72;;
56511;SDS011;42408;53.238;5.686;2022-07-15T15:02:42;7.13;;;2.92;;
56511;SDS011;42408;53.238;5.686;2022-07-15T15:05:08;5.23;;;2.30;;
56511;SDS011;42408;53.238;5.686;2022-07-15T15:07:34;5.93;;;2.60;;
56511;SDS011;42408;53.238;5.686;2022-07-15T15:09:59;5.68;;;2.67;;
56511;SDS011;42408;53.238;5.686;2022-07-15T15:12:25;6.53;;;2.50;;
56511;SDS011;42408;53.238;5.686;2022-07-15T15:14:51;6.47;;;2.17;;
56511;SDS011;42408;53.238;5.686;2022-07-15T15:17:17;5.07;;;2.10;;
56511;SDS011;42408;53.238;5.686;2022-07-15T15:19:42;6.03;;;2.37;;
56511;SDS011;42408;53.238;5.686;2022-07-15T15:22:08;6.00;;;2.60;;
56511;SDS011;42408;53.238;5.686;2022-07-15T15:27:00;6.05;;;2.33;;
56511;SDS011;42408;53.238;5.686;2022-07-15T15:29:27;6.18;;;2.30;;
56511;SDS011;42408;53.238;5.686;2022-07-15T15:34:19;4.97;;;2.33;;
56511;SDS011;42408;53.238;5.686;2022-07-15T15:36:45;4.10;;;1.98;;
56511;SDS011;42408;53.238;5.686;2022-07-15T15:39:11;5.20;;;2.25;;
56511;SDS011;42408;53.238;5.686;2022-07-15T15:41:38;5.22;;;2.00;;
56511;SDS011;42408;53.238;5.686;2022-07-15T15:44:04;6.50;;;2.50;;
56511;SDS011;42408;53.238;5.686;2022-07-15T15:46:30;5.28;;;2.25;;
56511;SDS011;42408;53.238;5.686;2022-07-15T15:51:21;3.72;;;1.70;;
56511;SDS011;42408;53.238;5.686;2022-07-15T15:53:47;3.97;;;1.63;;
56511;SDS011;42408;53.238;5.686;2022-07-15T15:56:13;8.77;;;1.88;;
56511;SDS011;42408;53.238;5.686;2022-07-15T15:58:39;4.53;;;1.67;;
56511;SDS011;42408;53.238;5.686;2022-07-15T16:01:04;2.37;;;1.50;;
56511;SDS011;42408;53.238;5.686;2022-07-15T16:03:30;5.00;;;1.92;;
56511;SDS011;42408;53.238;5.686;2022-07-15T16:05:56;4.67;;;2.00;;
56511;SDS011;42408;53.238;5.686;2022-07-15T16:08:21;3.10;;;1.80;;
56511;SDS011;42408;53.238;5.686;2022-07-15T16:10:47;7.60;;;2.27;;
56511;SDS011;42408;53.238;5.686;2022-07-15T16:13:13;3.78;;;2.35;;
56511;SDS011;42408;53.238;5.686;2022-07-15T16:15:39;4.73;;;1.87;;
56511;SDS011;42408;53.238;5.686;2022-07-15T16:18:04;4.37;;;1.90;;
56511;SDS011;42408;53.238;5.686;2022-07-15T16:20:30;3.80;;;2.10;;
56511;SDS011;42408;53.238;5.686;2022-07-15T16:22:56;3.17;;;1.70;;
56511;SDS011;42408;53.238;5.686;2022-07-15T16:25:27;5.32;;;2.20;;
56511;SDS011;42408;53.238;5.686;2022-07-15T16:27:56;4.78;;;2.03;;
56511;SDS011;42408;53.238;5.686;2022-07-15T16:30:23;5.15;;;1.90;;
56511;SDS011;42408;53.238;5.686;2022-07-15T16:32:52;4.43;;;2.00;;
56511;SDS011;42408;53.238;5.686;2022-07-15T16:35:19;6.18;;;2.03;;
56511;SDS011;42408;53.238;5.686;2022-07-15T16:37:46;16.67;;;10.02;;
56511;SDS011;42408;53.238;5.686;2022-07-15T16:40:16;4.25;;;2.15;;
56511;SDS011;42408;53.238;5.686;2022-07-15T16:42:42;9.30;;;4.07;;
56511;SDS011;42408;53.238;5.686;2022-07-15T16:45:08;5.70;;;2.25;;
56511;SDS011;42408;53.238;5.686;2022-07-15T16:47:34;5.20;;;2.00;;
56511;SDS011;42408;53.238;5.686;2022-07-15T16:50:00;3.13;;;1.43;;
56511;SDS011;42408;53.238;5.686;2022-07-15T16:52:26;4.07;;;1.77;;
56511;SDS011;42408;53.238;5.686;2022-07-15T16:54:51;6.60;;;2.00;;
56511;SDS011;42408;53.238;5.686;2022-07-15T16:57:17;4.70;;;1.60;;
56511;SDS011;42408;53.238;5.686;2022-07-15T16:59:43;4.90;;;1.90;;
56511;SDS011;42408;53.238;5.686;2022-07-15T17:02:09;6.25;;;2.08;;
56511;SDS011;42408;53.238;5.686;2022-07-15T17:07:01;4.70;;;1.70;;
56511;SDS011;42408;53.238;5.686;2022-07-15T17:09:27;5.00;;;1.70;;
56511;SDS011;42408;53.238;5.686;2022-07-15T17:11:53;3.33;;;1.70;;
56511;SDS011;42408;53.238;5.686;2022-07-15T17:14:19;4.63;;;1.93;;
56511;SDS011;42408;53.238;5.686;2022-07-15T17:16:44;5.97;;;1.90;;
56511;SDS011;42408;53.238;5.686;2022-07-15T17:19:10;5.47;;;1.70;;
56511;SDS011;42408;53.238;5.686;2022-07-15T17:21:36;5.77;;;1.70;;
56511;SDS011;42408;53.238;5.686;2022-07-15T17:24:05;6.97;;;2.40;;
56511;SDS011;42408;53.238;5.686;2022-07-15T17:26:31;5.25;;;2.08;;
56511;SDS011;42408;53.238;5.686;2022-07-15T17:28:57;4.73;;;2.00;;
56511;SDS011;42408;53.238;5.686;2022-07-15T17:31:22;4.20;;;2.20;;
56511;SDS011;42408;53.238;5.686;2022-07-15T17:33:48;4.03;;;1.80;;
56511;SDS011;42408;53.238;5.686;2022-07-15T17:36:14;3.90;;;1.90;;
56511;SDS011;42408;53.238;5.686;2022-07-15T17:38:39;3.92;;;1.63;;
56511;SDS011;42408;53.238;5.686;2022-07-15T17:41:05;2.93;;;1.70;;
56511;SDS011;42408;53.238;5.686;2022-07-15T17:43:31;4.70;;;1.90;;
56511;SDS011;42408;53.238;5.686;2022-07-15T17:45:57;4.82;;;1.63;;
56511;SDS011;42408;53.238;5.686;2022-07-15T17:48:22;3.93;;;1.50;;
56511;SDS011;42408;53.238;5.686;2022-07-15T17:50:48;1.73;;;1.40;;
56511;SDS011;42408;53.238;5.686;2022-07-15T17:53:14;2.63;;;1.20;;
56511;SDS011;42408;53.238;5.686;2022-07-15T17:55:39;4.17;;;1.30;;
56511;SDS011;42408;53.238;5.686;2022-07-15T17:58:05;3.73;;;1.30;;
56511;SDS011;42408;53.238;5.686;2022-07-15T18:00:31;4.27;;;1.50;;
56511;SDS011;42408;53.238;5.686;2022-07-15T18:02:56;3.60;;;1.10;;
56511;SDS011;42408;53.238;5.686;2022-07-15T18:05:22;5.43;;;1.33;;
56511;SDS011;42408;53.238;5.686;2022-07-15T18:07:48;3.65;;;1.10;;
56511;SDS011;42408;53.238;5.686;2022-07-15T18:10:13;3.10;;;1.40;;
56511;SDS011;42408;53.238;5.686;2022-07-15T18:12:39;3.93;;;1.30;;
56511;SDS011;42408;53.238;5.686;2022-07-15T18:15:05;5.30;;;1.30;;
56511;SDS011;42408;53.238;5.686;2022-07-15T18:19:58;2.17;;;1.15;;
56511;SDS011;42408;53.238;5.686;2022-07-15T18:24:49;3.00;;;1.40;;
56511;SDS011;42408;53.238;5.686;2022-07-15T18:27:17;1.88;;;1.27;;
56511;SDS011;42408;53.238;5.686;2022-07-15T18:29:46;2.38;;;1.10;;
56511;SDS011;42408;53.238;5.686;2022-07-15T18:32:11;3.13;;;1.10;;
56511;SDS011;42408;53.238;5.686;2022-07-15T18:34:37;2.30;;;1.00;;
56511;SDS011;42408;53.238;5.686;2022-07-15T18:37:04;2.63;;;1.02;;
56511;SDS011;42408;53.238;5.686;2022-07-15T18:39:30;2.87;;;1.37;;
56511;SDS011;42408;53.238;5.686;2022-07-15T18:41:55;5.47;;;1.30;;
56511;SDS011;42408;53.238;5.686;2022-07-15T18:44:22;2.28;;;1.30;;
56511;SDS011;42408;53.238;5.686;2022-07-15T18:46:47;3.60;;;1.20;;
56511;SDS011;42408;53.238;5.686;2022-07-15T18:49:13;2.10;;;1.20;;
56511;SDS011;42408;53.238;5.686;2022-07-15T18:51:38;2.10;;;1.33;;
56511;SDS011;42408;53.238;5.686;2022-07-15T18:54:04;3.77;;;1.30;;
56511;SDS011;42408;53.238;5.686;2022-07-15T18:56:30;3.17;;;1.50;;
56511;SDS011;42408;53.238;5.686;2022-07-15T18:58:56;3.35;;;1.33;;
56511;SDS011;42408;53.238;5.686;2022-07-15T19:01:22;3.83;;;1.67;;
56511;SDS011;42408;53.238;5.686;2022-07-15T19:03:48;5.57;;;1.95;;
56511;SDS011;42408;53.238;5.686;2022-07-15T19:06:15;4.43;;;1.75;;
56511;SDS011;42408;53.238;5.686;2022-07-15T19:08:40;5.73;;;2.07;;
56511;SDS011;42408;53.238;5.686;2022-07-15T19:11:07;4.45;;;1.90;;
56511;SDS011;42408;53.238;5.686;2022-07-15T19:13:33;4.53;;;2.38;;
56511;SDS011;42408;53.238;5.686;2022-07-15T19:15:58;5.97;;;2.30;;
56511;SDS011;42408;53.238;5.686;2022-07-15T19:18:24;4.67;;;2.33;;
56511;SDS011;42408;53.238;5.686;2022-07-15T19:20:50;4.78;;;2.25;;
56511;SDS011;42408;53.238;5.686;2022-07-15T19:23:16;5.00;;;2.13;;
56511;SDS011;42408;53.238;5.686;2022-07-15T19:25:41;7.63;;;2.27;;
56511;SDS011;42408;53.238;5.686;2022-07-15T19:28:07;4.77;;;2.60;;
56511;SDS011;42408;53.238;5.686;2022-07-15T19:30:33;4.90;;;2.30;;
56511;SDS011;42408;53.238;5.686;2022-07-15T19:32:59;4.13;;;2.30;;
56511;SDS011;42408;53.238;5.686;2022-07-15T19:35:25;5.90;;;2.50;;
56511;SDS011;42408;53.238;5.686;2022-07-15T19:37:51;4.13;;;2.47;;
56511;SDS011;42408;53.238;5.686;2022-07-15T19:40:17;6.23;;;2.50;;
56511;SDS011;42408;53.238;5.686;2022-07-15T19:42:42;5.10;;;2.47;;
56511;SDS011;42408;53.238;5.686;2022-07-15T19:45:10;5.15;;;2.35;;
56511;SDS011;42408;53.238;5.686;2022-07-15T19:47:37;8.32;;;2.55;;
56511;SDS011;42408;53.238;5.686;2022-07-15T19:50:03;7.87;;;2.07;;
56511;SDS011;42408;53.238;5.686;2022-07-15T19:52:29;5.25;;;2.65;;
56511;SDS011;42408;53.238;5.686;2022-07-15T19:54:55;5.63;;;2.30;;
56511;SDS011;42408;53.238;5.686;2022-07-15T19:57:20;5.63;;;2.70;;
56511;SDS011;42408;53.238;5.686;2022-07-15T19:59:46;5.50;;;2.80;;
56511;SDS011;42408;53.238;5.686;2022-07-15T20:02:31;4.80;;;2.60;;
56511;SDS011;42408;53.238;5.686;2022-07-15T20:04:56;5.97;;;2.63;;
56511;SDS011;42408;53.238;5.686;2022-07-15T20:07:22;4.30;;;2.50;;
56511;SDS011;42408;53.238;5.686;2022-07-15T20:09:48;3.67;;;2.50;;
56511;SDS011;42408;53.238;5.686;2022-07-15T20:12:14;6.93;;;2.60;;
56511;SDS011;42408;53.238;5.686;2022-07-15T20:14:40;6.30;;;3.15;;
56511;SDS011;42408;53.238;5.686;2022-07-15T20:17:05;5.50;;;2.90;;
56511;SDS011;42408;53.238;5.686;2022-07-15T20:19:31;6.60;;;2.80;;
56511;SDS011;42408;53.238;5.686;2022-07-15T20:21:57;5.13;;;2.70;;
56511;SDS011;42408;53.238;5.686;2022-07-15T20:26:49;6.15;;;3.25;;
56511;SDS011;42408;53.238;5.686;2022-07-15T20:29:15;7.70;;;3.70;;
56511;SDS011;42408;53.238;5.686;2022-07-15T20:31:40;5.97;;;3.23;;
56511;SDS011;42408;53.238;5.686;2022-07-15T20:34:06;8.10;;;3.47;;
56511;SDS011;42408;53.238;5.686;2022-07-15T20:36:32;6.27;;;2.80;;
56511;SDS011;42408;53.238;5.686;2022-07-15T20:38:58;5.70;;;3.08;;
56511;SDS011;42408;53.238;5.686;2022-07-15T20:41:23;5.40;;;3.20;;
56511;SDS011;42408;53.238;5.686;2022-07-15T20:43:49;7.20;;;2.97;;
56511;SDS011;42408;53.238;5.686;2022-07-15T20:46:14;7.07;;;3.10;;
56511;SDS011;42408;53.238;5.686;2022-07-15T20:48:40;6.30;;;2.70;;
56511;SDS011;42408;53.238;5.686;2022-07-15T20:51:06;6.67;;;2.80;;
56511;SDS011;42408;53.238;5.686;2022-07-15T20:53:32;4.47;;;2.40;;
56511;SDS011;42408;53.238;5.686;2022-07-15T20:55:57;7.87;;;3.13;;
56511;SDS011;42408;53.238;5.686;2022-07-15T20:58:23;4.73;;;2.47;;
56511;SDS011;42408;53.238;5.686;2022-07-15T21:00:49;8.50;;;2.40;;
56511;SDS011;42408;53.238;5.686;2022-07-15T21:03:15;4.77;;;2.37;;
56511;SDS011;42408;53.238;5.686;2022-07-15T21:05:41;5.57;;;2.60;;
56511;SDS011;42408;53.238;5.686;2022-07-15T21:08:07;4.00;;;2.10;;
56511;SDS011;42408;53.238;5.686;2022-07-15T21:10:33;5.60;;;2.10;;
56511;SDS011;42408;53.238;5.686;2022-07-15T21:13:00;6.15;;;2.50;;
56511;SDS011;42408;53.238;5.686;2022-07-15T21:15:26;6.13;;;2.20;;
56511;SDS011;42408;53.238;5.686;2022-07-15T21:17:51;4.80;;;2.10;;
56511;SDS011;42408;53.238;5.686;2022-07-15T21:20:17;5.00;;;2.20;;
56511;SDS011;42408;53.238;5.686;2022-07-15T21:22:43;6.22;;;2.88;;
56511;SDS011;42408;53.238;5.686;2022-07-15T21:25:09;6.82;;;2.30;;
56511;SDS011;42408;53.238;5.686;2022-07-15T21:27:53;7.28;;;2.22;;
56511;SDS011;42408;53.238;5.686;2022-07-15T21:30:20;6.00;;;2.92;;
56511;SDS011;42408;53.238;5.686;2022-07-15T21:32:46;7.40;;;3.28;;
56511;SDS011;42408;53.238;5.686;2022-07-15T21:35:12;8.17;;;3.77;;
56511;SDS011;42408;53.238;5.686;2022-07-15T21:37:38;8.27;;;3.65;;
56511;SDS011;42408;53.238;5.686;2022-07-15T21:40:04;8.87;;;4.00;;
56511;SDS011;42408;53.238;5.686;2022-07-15T21:42:31;7.70;;;3.65;;
56511;SDS011;42408;53.238;5.686;2022-07-15T21:44:56;8.17;;;4.17;;
56511;SDS011;42408;53.238;5.686;2022-07-15T21:47:22;5.97;;;3.67;;
56511;SDS011;42408;53.238;5.686;2022-07-15T21:49:48;9.20;;;3.77;;
56511;SDS011;42408;53.238;5.686;2022-07-15T21:52:14;7.40;;;3.70;;
56511;SDS011;42408;53.238;5.686;2022-07-15T21:54:39;8.93;;;3.97;;
56511;SDS011;42408;53.238;5.686;2022-07-15T21:57:05;7.83;;;3.43;;
56511;SDS011;42408;53.238;5.686;2022-07-15T21:59:31;10.15;;;3.97;;
56511;SDS011;42408;53.238;5.686;2022-07-15T22:01:56;6.57;;;3.27;;
56511;SDS011;42408;53.238;5.686;2022-07-15T22:04:22;11.23;;;4.30;;
56511;SDS011;42408;53.238;5.686;2022-07-15T22:06:48;10.13;;;3.83;;
56511;SDS011;42408;53.238;5.686;2022-07-15T22:09:13;8.53;;;3.57;;
56511;SDS011;42408;53.238;5.686;2022-07-15T22:11:39;5.83;;;3.10;;
56511;SDS011;42408;53.238;5.686;2022-07-15T22:14:05;6.97;;;3.43;;
56511;SDS011;42408;53.238;5.686;2022-07-15T22:16:31;8.83;;;2.97;;
56511;SDS011;42408;53.238;5.686;2022-07-15T22:18:56;4.23;;;2.50;;
56511;SDS011;42408;53.238;5.686;2022-07-15T22:21:22;5.33;;;2.63;;
56511;SDS011;42408;53.238;5.686;2022-07-15T22:23:49;5.70;;;2.63;;
56511;SDS011;42408;53.238;5.686;2022-07-15T22:26:16;7.05;;;3.03;;
56511;SDS011;42408;53.238;5.686;2022-07-15T22:28:42;6.97;;;3.03;;
56511;SDS011;42408;53.238;5.686;2022-07-15T22:31:09;6.32;;;3.28;;
56511;SDS011;42408;53.238;5.686;2022-07-15T22:33:35;6.77;;;2.80;;
56511;SDS011;42408;53.238;5.686;2022-07-15T22:36:01;4.53;;;2.70;;
56511;SDS011;42408;53.238;5.686;2022-07-15T22:38:27;6.23;;;3.00;;
56511;SDS011;42408;53.238;5.686;2022-07-15T22:43:19;6.75;;;3.13;;
56511;SDS011;42408;53.238;5.686;2022-07-15T22:45:45;7.57;;;2.77;;
56511;SDS011;42408;53.238;5.686;2022-07-15T22:48:11;7.87;;;3.13;;
56511;SDS011;42408;53.238;5.686;2022-07-15T22:50:37;10.80;;;3.42;;
56511;SDS011;42408;53.238;5.686;2022-07-15T22:53:03;10.60;;;3.58;;
56511;SDS011;42408;53.238;5.686;2022-07-15T22:55:29;8.17;;;3.30;;
56511;SDS011;42408;53.238;5.686;2022-07-15T22:57:55;7.38;;;3.40;;
56511;SDS011;42408;53.238;5.686;2022-07-15T23:00:20;6.20;;;3.13;;
56511;SDS011;42408;53.238;5.686;2022-07-15T23:02:46;8.37;;;3.33;;
56511;SDS011;42408;53.238;5.686;2022-07-15T23:05:12;7.97;;;3.60;;
56511;SDS011;42408;53.238;5.686;2022-07-15T23:07:38;7.37;;;3.13;;
56511;SDS011;42408;53.238;5.686;2022-07-15T23:10:04;7.43;;;3.40;;
56511;SDS011;42408;53.238;5.686;2022-07-15T23:12:30;8.48;;;3.85;;
56511;SDS011;42408;53.238;5.686;2022-07-15T23:14:56;6.83;;;3.57;;
56511;SDS011;42408;53.238;5.686;2022-07-15T23:17:21;9.03;;;3.43;;
56511;SDS011;42408;53.238;5.686;2022-07-15T23:19:47;7.90;;;3.83;;
56511;SDS011;42408;53.238;5.686;2022-07-15T23:22:13;7.83;;;3.27;;
56511;SDS011;42408;53.238;5.686;2022-07-15T23:24:39;5.57;;;3.10;;
56511;SDS011;42408;53.238;5.686;2022-07-15T23:27:05;6.67;;;3.60;;
56511;SDS011;42408;53.238;5.686;2022-07-15T23:29:31;6.63;;;3.40;;
56511;SDS011;42408;53.238;5.686;2022-07-15T23:31:57;5.93;;;3.25;;
56511;SDS011;42408;53.238;5.686;2022-07-15T23:34:23;7.97;;;3.45;;
56511;SDS011;42408;53.238;5.686;2022-07-15T23:36:49;9.10;;;3.60;;
56511;SDS011;42408;53.238;5.686;2022-07-15T23:39:15;7.83;;;3.43;;
56511;SDS011;42408;53.238;5.686;2022-07-15T23:41:40;7.30;;;3.10;;
56511;SDS011;42408;53.238;5.686;2022-07-15T23:44:06;9.13;;;3.47;;
56511;SDS011;42408;53.238;5.686;2022-07-15T23:46:32;8.50;;;3.50;;
56511;SDS011;42408;53.238;5.686;2022-07-15T23:48:57;9.80;;;3.40;;
56511;SDS011;42408;53.238;5.686;2022-07-15T23:51:23;6.27;;;2.90;;
56511;SDS011;42408;53.238;5.686;2022-07-15T23:53:49;9.33;;;3.90;;
56511;SDS011;42408;53.238;5.686;2022-07-15T23:56:14;6.20;;;2.97;;
56511;SDS011;42408;53.238;5.686;2022-07-15T23:58:40;9.70;;;3.60;;
